createdAt,value
2019-01-20T00:01:38.332Z,40.57
2019-01-20T00:04:07.990Z,41.03
2019-01-20T00:06:37.760Z,40.47
2019-01-20T00:09:10.266Z,46.67
2019-01-20T00:11:39.992Z,46.77
2019-01-20T00:14:09.719Z,44.30
2019-01-20T00:16:39.353Z,44.30
2019-01-20T00:19:08.979Z,43.87
2019-01-20T00:21:38.742Z,45.23
2019-01-20T00:24:08.354Z,43.70
2019-01-20T00:26:38.004Z,45.40
2019-01-20T00:29:07.684Z,45.77
2019-01-20T00:31:37.298Z,47.07
2019-01-20T00:34:07.095Z,47.87
2019-01-20T00:36:36.831Z,44.87
2019-01-20T00:39:09.297Z,47.40
2019-01-20T00:41:38.989Z,46.67
2019-01-20T00:44:08.738Z,42.73
2019-01-20T00:46:38.355Z,40.07
2019-01-20T00:49:08.010Z,39.43
2019-01-20T00:51:37.728Z,39.77
2019-01-20T00:54:07.808Z,41.07
2019-01-20T00:56:37.471Z,38.87
2019-01-20T00:59:07.274Z,39.30
2019-01-20T01:01:36.893Z,39.40
2019-01-20T01:04:06.850Z,40.93
2019-01-20T01:06:36.569Z,41.30
2019-01-20T01:09:08.506Z,42.90
2019-01-20T01:11:38.158Z,43.60
2019-01-20T01:14:07.895Z,47.07
2019-01-20T01:16:37.598Z,46.70
2019-01-20T01:19:07.219Z,44.37
2019-01-20T01:21:37.975Z,43.53
2019-01-20T01:24:07.618Z,44.23
2019-01-20T01:26:37.256Z,46.90
2019-01-20T01:29:06.920Z,44.77
2019-01-20T01:31:36.542Z,44.97
2019-01-20T01:34:06.383Z,44.00
2019-01-20T01:36:36.044Z,42.97
2019-01-20T01:39:08.904Z,42.10
2019-01-20T01:41:39.387Z,42.03
2019-01-20T01:44:09.012Z,42.30
2019-01-20T01:46:38.635Z,41.57
2019-01-20T01:49:08.276Z,42.13
2019-01-20T01:51:38.072Z,42.00
2019-01-20T01:54:07.644Z,40.90
2019-01-20T01:56:37.392Z,40.67
2019-01-20T01:59:07.140Z,40.47
2019-01-20T02:01:36.825Z,40.80
2019-01-20T02:04:06.547Z,40.17
2019-01-20T02:06:36.314Z,40.10
2019-01-20T02:09:08.567Z,39.93
2019-01-20T02:11:38.215Z,36.93
2019-01-20T02:14:07.960Z,35.70
2019-01-20T02:16:37.585Z,36.60
2019-01-20T02:19:07.256Z,37.10
2019-01-20T02:21:36.908Z,35.40
2019-01-20T02:24:06.529Z,34.60
2019-01-20T02:26:36.168Z,35.03
2019-01-20T02:29:07.175Z,34.67
2019-01-20T02:31:36.819Z,34.73
2019-01-20T02:34:06.519Z,35.50
2019-01-20T02:36:36.253Z,36.20
2019-01-20T02:39:07.731Z,33.47
2019-01-20T02:41:37.351Z,33.17
2019-01-20T02:44:07.074Z,34.23
2019-01-20T02:46:36.728Z,34.03
2019-01-20T02:49:06.464Z,34.07
2019-01-20T02:51:36.154Z,34.77
2019-01-20T02:54:06.012Z,33.37
2019-01-20T02:56:35.690Z,35.70
2019-01-20T02:59:05.518Z,35.37
2019-01-20T03:01:35.151Z,33.43
2019-01-20T03:04:05.024Z,34.17
2019-01-20T03:06:34.675Z,34.53
2019-01-20T03:09:07.618Z,33.33
2019-01-20T03:11:37.424Z,33.87
2019-01-20T03:14:07.091Z,32.77
2019-01-20T03:16:36.736Z,34.70
2019-01-20T03:19:06.606Z,35.00
2019-01-20T03:21:36.254Z,37.37
2019-01-20T03:24:06.155Z,37.00
2019-01-20T03:26:35.866Z,36.87
2019-01-20T03:29:05.647Z,36.43
2019-01-20T03:31:35.262Z,34.70
2019-01-20T03:34:05.028Z,36.97
2019-01-20T03:36:34.663Z,35.13
2019-01-20T03:39:05.431Z,37.80
2019-01-20T03:41:35.141Z,37.57
2019-01-20T03:44:04.887Z,38.73
2019-01-20T03:46:34.556Z,37.83
2019-01-20T03:49:04.223Z,38.13
2019-01-20T03:51:33.835Z,38.70
2019-01-20T03:54:03.538Z,38.83
2019-01-20T03:56:33.212Z,38.67
2019-01-20T03:59:02.938Z,37.63
2019-01-20T04:01:32.542Z,37.47
2019-01-20T04:04:02.221Z,37.07
2019-01-20T04:06:31.873Z,38.20
2019-01-20T04:09:01.531Z,36.80
2019-01-20T04:11:31.330Z,37.27
2019-01-20T04:14:00.940Z,35.90
2019-01-20T04:16:30.570Z,37.40
2019-01-20T04:19:00.323Z,37.57
2019-01-20T04:21:30.857Z,38.37
2019-01-20T04:24:00.504Z,36.83
2019-01-20T04:26:30.230Z,38.67
2019-01-20T04:28:59.894Z,37.70
2019-01-20T04:31:29.527Z,37.73
2019-01-20T04:33:59.200Z,35.57
2019-01-20T04:36:28.854Z,36.73
2019-01-20T04:38:58.490Z,38.87
2019-01-20T04:41:28.140Z,38.10
2019-01-20T04:43:57.859Z,37.13
2019-01-20T04:46:27.549Z,39.03
2019-01-20T04:48:57.238Z,36.73
2019-01-20T04:51:26.870Z,34.97
2019-01-20T04:53:56.580Z,34.60
2019-01-20T04:56:26.397Z,35.03
2019-01-20T04:58:56.030Z,35.10
2019-01-20T05:01:25.688Z,37.37
2019-01-20T05:03:55.357Z,38.57
2019-01-20T05:06:25.084Z,43.27
2019-01-20T05:08:54.700Z,43.30
2019-01-20T05:11:24.362Z,42.63
2019-01-20T05:13:53.999Z,40.83
2019-01-20T05:16:23.622Z,41.67
2019-01-20T05:18:53.669Z,37.20
2019-01-20T05:21:23.344Z,38.17
2019-01-20T05:23:52.977Z,48.97
2019-01-20T05:26:22.701Z,66.43
2019-01-20T05:28:52.301Z,72.63
2019-01-20T05:31:21.967Z,46.13
2019-01-20T05:33:51.638Z,48.07
2019-01-20T05:36:21.277Z,49.83
2019-01-20T05:38:50.919Z,50.73
2019-01-20T05:41:20.620Z,40.60
2019-01-20T05:43:50.322Z,44.40
2019-01-20T05:46:19.965Z,44.03
2019-01-20T05:48:49.729Z,41.47
2019-01-20T05:51:19.343Z,44.13
2019-01-20T05:53:48.926Z,44.77
2019-01-20T05:56:18.703Z,41.87
2019-01-20T05:58:48.294Z,44.50
2019-01-20T06:01:17.982Z,44.37
2019-01-20T06:03:47.710Z,46.10
2019-01-20T06:06:17.369Z,47.77
2019-01-20T06:08:47.016Z,47.27
2019-01-20T06:11:16.778Z,38.63
2019-01-20T06:13:46.434Z,39.13
2019-01-20T06:16:16.162Z,39.83
2019-01-20T06:18:45.930Z,23.40
2019-01-20T06:21:15.537Z,38.03
2019-01-20T06:23:45.198Z,39.57
2019-01-20T06:26:15.026Z,39.07
2019-01-20T06:28:44.614Z,38.20
2019-01-20T06:31:14.305Z,39.00
2019-01-20T06:33:44.087Z,37.63
2019-01-20T06:36:13.796Z,36.00
2019-01-20T06:38:43.489Z,37.70
2019-01-20T06:41:13.258Z,35.97
2019-01-20T06:43:42.972Z,36.30
2019-01-20T06:46:12.696Z,37.33
2019-01-20T06:48:42.460Z,40.07
2019-01-20T06:51:12.181Z,38.13
2019-01-20T06:53:41.900Z,37.13
2019-01-20T06:56:11.598Z,41.13
2019-01-20T06:58:41.227Z,38.00
2019-01-20T07:01:10.885Z,38.60
2019-01-20T07:03:40.609Z,39.07
2019-01-20T07:06:10.219Z,39.77
2019-01-20T07:08:39.877Z,39.57
2019-01-20T07:11:09.654Z,40.17
2019-01-20T07:13:39.311Z,35.90
2019-01-20T07:16:09.053Z,41.20
2019-01-20T07:18:38.745Z,40.13
2019-01-20T07:21:08.353Z,39.53
2019-01-20T07:23:37.947Z,41.80
2019-01-20T07:26:07.916Z,41.83
2019-01-20T07:28:37.556Z,41.87
2019-01-20T07:31:07.196Z,41.17
2019-01-20T07:33:36.905Z,41.13
2019-01-20T07:36:06.569Z,44.23
2019-01-20T07:38:36.189Z,44.30
2019-01-20T07:41:05.967Z,44.10
2019-01-20T07:43:35.656Z,47.63
2019-01-20T07:46:05.513Z,49.27
2019-01-20T07:48:35.292Z,46.80
2019-01-20T07:51:04.989Z,51.13
2019-01-20T07:53:34.651Z,50.50
2019-01-20T07:56:04.533Z,49.80
2019-01-20T07:58:34.164Z,49.20
2019-01-20T08:01:03.778Z,51.23
2019-01-20T08:03:33.438Z,50.60
2019-01-20T08:06:03.064Z,49.60
2019-01-20T08:08:32.713Z,49.47
2019-01-20T08:11:02.471Z,49.47
2019-01-20T08:13:32.100Z,51.30
2019-01-20T08:16:01.814Z,49.67
2019-01-20T08:18:31.611Z,49.80
2019-01-20T08:21:01.357Z,49.50
2019-01-20T08:23:30.999Z,48.57
2019-01-20T08:26:00.735Z,47.63
2019-01-20T08:28:30.376Z,50.93
2019-01-20T08:31:00.065Z,49.17
2019-01-20T08:33:29.778Z,49.20
2019-01-20T08:35:59.441Z,52.97
2019-01-20T08:38:29.115Z,50.10
2019-01-20T08:40:58.782Z,49.40
2019-01-20T08:43:31.866Z,53.53
2019-01-20T08:46:31.546Z,53.27
2019-01-20T08:49:01.273Z,52.57
2019-01-20T08:51:31.276Z,53.13
2019-01-20T08:54:01.066Z,50.40
2019-01-20T08:56:30.714Z,53.10
2019-01-20T08:59:00.325Z,54.40
2019-01-20T09:01:30.137Z,52.33
2019-01-20T09:03:59.792Z,51.83
2019-01-20T09:06:29.555Z,51.40
2019-01-20T09:08:59.234Z,52.50
2019-01-20T09:11:28.855Z,52.97
2019-01-20T09:13:58.492Z,54.73
2019-01-20T09:16:28.192Z,51.13
2019-01-20T09:18:57.866Z,56.63
2019-01-20T09:21:27.494Z,55.83
2019-01-20T09:23:57.463Z,56.47
2019-01-20T09:26:27.134Z,56.20
2019-01-20T09:28:56.809Z,57.93
2019-01-20T09:31:26.599Z,58.57
2019-01-20T09:33:56.273Z,58.93
2019-01-20T09:36:26.023Z,63.20
2019-01-20T09:38:55.701Z,63.10
2019-01-20T09:41:25.292Z,65.30
2019-01-20T09:43:54.975Z,66.90
2019-01-20T09:46:24.707Z,65.50
2019-01-20T09:48:54.399Z,64.77
2019-01-20T09:51:24.074Z,60.33
2019-01-20T09:53:53.804Z,64.43
2019-01-20T09:56:23.591Z,54.87
2019-01-20T09:58:53.190Z,53.27
2019-01-20T10:01:22.974Z,50.80
2019-01-20T10:03:52.729Z,36.73
2019-01-20T10:06:22.419Z,37.57
2019-01-20T10:08:52.112Z,36.67
2019-01-20T10:11:21.758Z,27.23
2019-01-20T10:13:54.958Z,28.00
2019-01-20T10:16:22.912Z,26.43
2019-01-20T10:18:52.749Z,21.90
2019-01-20T10:21:22.420Z,21.17
2019-01-20T10:23:52.213Z,21.53
2019-01-20T10:26:21.831Z,22.80
2019-01-20T10:28:51.492Z,24.17
2019-01-20T10:31:21.380Z,25.70
2019-01-20T10:33:51.111Z,24.50
2019-01-20T10:36:20.819Z,24.40
2019-01-20T10:38:50.519Z,26.70
2019-01-20T10:41:20.182Z,23.93
2019-01-20T10:43:49.848Z,24.57
2019-01-20T10:46:19.522Z,23.83
2019-01-20T10:48:49.276Z,25.93
2019-01-20T10:51:19.019Z,26.73
2019-01-20T10:53:53.079Z,29.33
2019-01-20T10:56:20.007Z,26.53
2019-01-20T10:58:49.628Z,28.37
2019-01-20T11:01:19.539Z,23.00
2019-01-20T11:03:49.180Z,29.73
2019-01-20T11:06:18.947Z,32.57
2019-01-20T11:08:48.740Z,27.10
2019-01-20T11:11:18.391Z,29.73
2019-01-20T11:13:48.031Z,28.07
2019-01-20T11:16:17.721Z,28.17
2019-01-20T11:18:47.508Z,28.70
2019-01-20T11:21:17.117Z,29.13
2019-01-20T11:23:47.166Z,29.63
2019-01-20T11:26:16.776Z,28.90
2019-01-20T11:28:46.436Z,30.77
2019-01-20T11:31:16.082Z,30.23
2019-01-20T11:33:45.706Z,29.70
2019-01-20T11:36:15.526Z,29.20
2019-01-20T11:38:45.314Z,32.43
2019-01-20T11:41:14.964Z,31.33
2019-01-20T11:43:44.631Z,29.83
2019-01-20T11:46:14.432Z,28.30
2019-01-20T11:48:44.056Z,29.20
2019-01-20T11:51:13.678Z,29.37
2019-01-20T11:53:43.402Z,31.37
2019-01-20T11:56:13.089Z,30.13
2019-01-20T11:58:42.808Z,31.83
2019-01-20T12:01:12.506Z,32.27
2019-01-20T12:03:42.147Z,34.30
2019-01-20T12:06:11.907Z,33.90
2019-01-20T12:08:41.581Z,32.93
2019-01-20T12:11:11.252Z,35.60
2019-01-20T12:13:40.995Z,30.77
2019-01-20T12:16:10.868Z,30.60
2019-01-20T12:18:40.502Z,32.10
2019-01-20T12:21:10.138Z,32.43
2019-01-20T12:23:39.879Z,30.80
2019-01-20T12:26:09.552Z,33.67
2019-01-20T12:28:39.217Z,32.97
2019-01-20T12:31:08.925Z,30.37
2019-01-20T12:33:38.559Z,31.40
2019-01-20T12:36:08.243Z,31.97
2019-01-20T12:38:38.031Z,31.40
2019-01-20T12:41:07.698Z,32.33
2019-01-20T12:43:37.348Z,29.93
2019-01-20T12:46:07.029Z,29.67
2019-01-20T12:48:36.669Z,30.00
2019-01-20T12:51:06.353Z,28.57
2019-01-20T12:53:36.034Z,29.60
2019-01-20T12:56:05.773Z,33.87
2019-01-20T12:58:35.440Z,34.23
2019-01-20T13:01:05.259Z,22.43
2019-01-20T13:03:34.950Z,35.77
2019-01-20T13:06:04.749Z,35.07
2019-01-20T13:08:34.417Z,33.70
2019-01-20T13:11:04.159Z,33.93
2019-01-20T13:13:33.803Z,33.27
2019-01-20T13:16:03.639Z,35.67
2019-01-20T13:18:33.271Z,36.67
2019-01-20T13:21:02.949Z,33.80
2019-01-20T13:23:32.780Z,37.23
2019-01-20T13:26:02.428Z,37.63
2019-01-20T13:28:32.082Z,37.07
2019-01-20T13:31:01.960Z,38.60
2019-01-20T13:33:31.651Z,37.43
2019-01-20T13:36:07.095Z,38.73
2019-01-20T13:38:32.777Z,37.83
2019-01-20T13:41:16.633Z,38.77
2019-01-20T13:43:46.299Z,39.97
2019-01-20T13:46:15.925Z,37.47
2019-01-20T13:48:45.684Z,37.83
2019-01-20T13:51:15.465Z,37.93
2019-01-20T13:53:45.154Z,38.20
2019-01-20T13:56:14.815Z,40.33
2019-01-20T13:58:44.656Z,38.93
2019-01-20T14:01:14.264Z,39.77
2019-01-20T14:03:44.021Z,35.53
2019-01-20T14:06:13.748Z,37.43
2019-01-20T14:08:44.306Z,36.57
2019-01-20T14:11:14.457Z,34.10
2019-01-20T14:13:44.206Z,33.80
2019-01-20T14:16:14.018Z,33.97
2019-01-20T14:18:45.386Z,31.20
2019-01-20T14:21:15.310Z,34.63
2019-01-20T14:23:44.946Z,34.50
2019-01-20T14:26:14.609Z,34.37
2019-01-20T14:28:44.393Z,35.50
2019-01-20T14:31:14.281Z,33.80
2019-01-20T14:33:43.953Z,33.37
2019-01-20T14:36:13.684Z,35.60
2019-01-20T14:38:43.323Z,35.13
2019-01-20T14:41:12.995Z,33.77
2019-01-20T14:43:42.844Z,33.67
2019-01-20T14:46:12.488Z,33.63
2019-01-20T14:48:42.175Z,33.07
2019-01-20T14:51:12.012Z,32.93
2019-01-20T14:53:41.673Z,31.17
2019-01-20T14:56:11.430Z,34.80
2019-01-20T14:58:41.185Z,35.60
2019-01-20T15:01:11.012Z,33.90
2019-01-20T15:03:40.731Z,34.73
2019-01-20T15:06:10.647Z,33.30
2019-01-20T15:08:40.405Z,32.07
2019-01-20T15:11:10.043Z,33.83
2019-01-20T15:13:39.866Z,33.13
2019-01-20T15:16:09.627Z,35.13
2019-01-20T15:18:39.337Z,33.83
2019-01-20T15:21:09.029Z,31.83
2019-01-20T15:23:38.866Z,30.87
2019-01-20T15:26:08.521Z,31.23
2019-01-20T15:28:38.365Z,33.93
2019-01-20T15:31:08.195Z,32.10
2019-01-20T15:33:38.217Z,33.67
2019-01-20T15:36:08.521Z,23.53
2019-01-20T15:38:41.510Z,33.30
2019-01-20T15:41:11.120Z,34.73
2019-01-20T15:43:40.793Z,35.03
2019-01-20T15:46:10.494Z,35.03
2019-01-20T15:48:40.113Z,33.10
2019-01-20T15:51:09.834Z,34.10
2019-01-20T15:53:39.437Z,34.97
2019-01-20T15:56:09.200Z,34.93
2019-01-20T15:58:38.921Z,37.13
2019-01-20T16:01:08.622Z,36.83
2019-01-20T16:03:38.239Z,34.27
2019-01-20T16:06:08.046Z,34.57
2019-01-20T16:08:37.703Z,35.43
2019-01-20T16:11:07.349Z,34.13
2019-01-20T16:13:37.127Z,31.67
2019-01-20T16:16:06.778Z,30.00
2019-01-20T16:18:36.425Z,30.17
2019-01-20T16:21:06.445Z,30.90
2019-01-20T16:23:36.109Z,31.43
2019-01-20T16:26:06.206Z,29.90
2019-01-20T16:28:36.000Z,28.57
2019-01-20T16:31:05.756Z,29.40
2019-01-20T16:33:35.363Z,32.97
2019-01-20T16:36:05.131Z,31.60
2019-01-20T16:38:34.793Z,30.73
2019-01-20T16:41:04.558Z,34.07
2019-01-20T16:43:34.377Z,34.47
2019-01-20T16:46:04.146Z,34.67
2019-01-20T16:48:33.750Z,35.43
2019-01-20T16:51:03.464Z,37.20
2019-01-20T16:53:33.110Z,38.27
2019-01-20T16:56:02.735Z,41.10
2019-01-20T16:58:32.602Z,41.57
2019-01-20T17:01:02.275Z,39.73
2019-01-20T17:03:31.920Z,40.57
2019-01-20T17:06:01.729Z,41.93
2019-01-20T17:08:31.359Z,42.63
2019-01-20T17:11:00.984Z,42.07
2019-01-20T17:13:30.702Z,42.07
2019-01-20T17:16:00.358Z,43.87
2019-01-20T17:18:30.019Z,46.07
2019-01-20T17:20:59.729Z,46.60
2019-01-20T17:23:30.017Z,46.77
2019-01-20T17:25:59.769Z,50.60
2019-01-20T17:28:29.524Z,46.30
2019-01-20T17:30:59.225Z,46.77
2019-01-20T17:33:28.891Z,47.17
2019-01-20T17:35:58.628Z,52.20
2019-01-20T17:38:28.396Z,41.77
2019-01-20T17:40:58.042Z,38.53
2019-01-20T17:43:27.884Z,39.37
2019-01-20T17:45:57.535Z,39.77
2019-01-20T17:48:27.167Z,39.53
2019-01-20T17:50:56.946Z,40.37
2019-01-20T17:53:26.595Z,40.57
2019-01-20T17:55:56.267Z,40.57
2019-01-20T17:58:25.959Z,45.20
2019-01-20T18:01:04.835Z,46.60
2019-01-20T18:03:34.536Z,46.27
2019-01-20T18:06:04.450Z,64.53
2019-01-20T18:08:34.102Z,45.13
2019-01-20T18:11:03.792Z,41.00
2019-01-20T18:13:33.474Z,40.57
2019-01-20T18:16:03.125Z,39.93
2019-01-20T18:18:32.833Z,38.00
2019-01-20T18:21:02.468Z,41.87
2019-01-20T18:23:32.074Z,41.10
2019-01-20T18:26:01.834Z,41.30
2019-01-20T18:28:31.453Z,42.90
2019-01-20T18:31:01.116Z,40.30
2019-01-20T18:33:30.858Z,37.13
2019-01-20T18:36:00.531Z,44.70
2019-01-20T18:38:30.259Z,33.13
2019-01-20T18:40:59.971Z,31.00
2019-01-20T18:43:29.673Z,31.67
2019-01-20T18:46:01.858Z,37.83
2019-01-20T18:48:30.773Z,39.67
2019-01-20T18:51:00.463Z,38.87
2019-01-20T18:53:30.521Z,36.70
2019-01-20T18:56:00.177Z,34.73
2019-01-20T18:58:29.875Z,32.60
2019-01-20T19:00:59.586Z,32.23
2019-01-20T19:03:29.286Z,28.13
2019-01-20T19:05:58.975Z,26.13
2019-01-20T19:08:28.908Z,26.73
2019-01-20T19:10:58.548Z,27.43
2019-01-20T19:13:28.270Z,25.90
2019-01-20T19:15:57.918Z,25.63
2019-01-20T19:18:27.583Z,25.50
2019-01-20T19:20:57.258Z,20.13
2019-01-20T19:23:26.978Z,20.50
2019-01-20T19:25:56.637Z,25.17
2019-01-20T19:28:26.335Z,24.87
2019-01-20T19:30:56.067Z,23.20
2019-01-20T19:33:25.786Z,22.07
2019-01-20T19:35:55.501Z,22.60
2019-01-20T19:38:25.143Z,24.10
2019-01-20T19:40:54.839Z,22.77
2019-01-20T19:43:24.507Z,22.87
2019-01-20T19:45:54.284Z,24.00
2019-01-20T19:48:23.943Z,25.40
2019-01-20T19:50:53.640Z,26.13
2019-01-20T19:53:23.368Z,30.10
2019-01-20T19:55:53.121Z,29.43
2019-01-20T19:58:22.884Z,27.97
2019-01-20T20:00:52.754Z,29.70
2019-01-20T20:03:22.416Z,29.00
2019-01-20T20:05:52.100Z,27.87
2019-01-20T20:08:21.879Z,27.03
2019-01-20T20:10:51.546Z,30.43
2019-01-20T20:13:21.223Z,34.80
2019-01-20T20:15:51.001Z,31.77
2019-01-20T20:18:20.678Z,31.40
2019-01-20T20:20:50.354Z,24.47
2019-01-20T20:23:20.009Z,22.60
2019-01-20T20:25:49.722Z,22.37
2019-01-20T20:28:19.352Z,22.37
2019-01-20T20:30:49.026Z,21.20
2019-01-20T20:33:18.819Z,21.50
2019-01-20T20:35:48.457Z,21.47
2019-01-20T20:38:18.192Z,24.60
2019-01-20T20:40:47.853Z,25.30
2019-01-20T20:43:17.565Z,26.13
2019-01-20T20:45:47.294Z,26.50
2019-01-20T20:48:16.988Z,27.10
2019-01-20T20:50:46.643Z,25.10
2019-01-20T20:53:16.275Z,24.73
2019-01-20T20:55:45.961Z,25.40
2019-01-20T20:58:15.616Z,28.33
2019-01-20T21:00:47.721Z,29.77
2019-01-20T21:03:22.725Z,28.73
2019-01-20T21:05:52.453Z,30.17
2019-01-20T21:08:22.097Z,28.07
2019-01-20T21:10:51.759Z,25.83
2019-01-20T21:13:21.399Z,23.80
2019-01-20T21:15:51.591Z,21.47
2019-01-20T21:18:21.299Z,20.33
2019-01-20T21:20:50.933Z,19.57
2019-01-20T21:23:20.618Z,19.50
2019-01-20T21:25:50.275Z,18.67
2019-01-20T21:28:20.471Z,18.67
2019-01-20T21:30:50.195Z,18.13
2019-01-20T21:33:19.994Z,16.90
2019-01-20T21:35:49.742Z,15.63
2019-01-20T21:38:19.442Z,16.30
2019-01-20T21:40:49.074Z,16.17
2019-01-20T21:43:18.804Z,16.17
2019-01-20T21:45:48.491Z,18.37
2019-01-20T21:48:18.103Z,18.63
2019-01-20T21:50:47.834Z,17.27
2019-01-20T21:53:17.472Z,16.77
2019-01-20T21:55:47.194Z,19.03
2019-01-20T21:58:16.859Z,16.17
2019-01-20T22:00:46.543Z,16.13
2019-01-20T22:03:16.215Z,15.57
2019-01-20T22:05:45.897Z,13.27
2019-01-20T22:08:15.510Z,13.70
2019-01-20T22:10:45.212Z,15.30
2019-01-20T22:13:14.948Z,17.07
2019-01-20T22:15:44.736Z,16.10
2019-01-20T22:18:14.405Z,17.80
2019-01-20T22:20:44.090Z,16.10
2019-01-20T22:23:13.723Z,15.57
2019-01-20T22:25:43.398Z,15.20
2019-01-20T22:28:13.111Z,15.77
2019-01-20T22:30:42.786Z,13.87
2019-01-20T22:33:12.441Z,13.30
2019-01-20T22:35:42.122Z,13.07
2019-01-20T22:38:11.853Z,12.70
2019-01-20T22:40:41.519Z,14.70
2019-01-20T22:43:11.167Z,15.07
2019-01-20T22:45:40.803Z,15.50
2019-01-20T22:48:10.472Z,14.10
2019-01-20T22:50:40.146Z,13.33
2019-01-20T22:53:10.842Z,12.93
2019-01-20T22:55:40.465Z,14.57
2019-01-20T22:58:10.142Z,15.67
2019-01-20T23:00:56.964Z,14.60
2019-01-20T23:03:26.838Z,13.13
2019-01-20T23:05:57.551Z,13.13
2019-01-20T23:08:27.308Z,14.53
2019-01-20T23:10:57.090Z,13.83
2019-01-20T23:13:26.737Z,12.30
2019-01-20T23:15:56.502Z,12.00
2019-01-20T23:18:26.201Z,11.40
2019-01-20T23:20:55.987Z,10.23
2019-01-20T23:23:25.667Z,9.70
2019-01-20T23:25:55.362Z,10.27
2019-01-20T23:28:24.975Z,10.13
2019-01-20T23:30:54.707Z,10.00
2019-01-20T23:33:24.335Z,11.03
2019-01-20T23:35:54.020Z,10.27
2019-01-20T23:38:23.812Z,11.13
2019-01-20T23:40:53.448Z,10.40
2019-01-20T23:43:23.111Z,10.30
2019-01-20T23:45:52.963Z,10.77
2019-01-20T23:48:22.599Z,11.20
2019-01-20T23:50:52.305Z,10.67
2019-01-20T23:53:21.977Z,11.37
2019-01-20T23:55:51.802Z,14.03
2019-01-20T23:58:21.454Z,14.33
